Time;durP1;ratioP1;P1;durP2;ratioP2;P2;SDS_P1;SDS_P2;PMS_P1;PMS_P2;Temp;Humidity;BMP_temperature;BMP_pressure;BME280_temperature;BME280_humidity;BME280_pressure;Samples;Min_cycle;Max_cycle;Signal;HPM_P1;HPM_P2
2022/01/28 00:04:55;;;;;;;;;14.50;13.50;;;;;19.85;34.52;102955.41;5076675;27;51124;-51
2022/01/28 00:07:21;;;;;;;;;12.75;12.75;;;;;19.83;34.78;102954.72;5065991;28;52590;-49
2022/01/28 00:09:46;;;;;;;;;13.00;12.25;;;;;19.81;34.66;102960.38;5064985;28;51073;-49
2022/01/28 00:12:12;;;;;;;;;12.50;12.50;;;;;19.81;34.66;102962.28;5065514;28;50923;-52
2022/01/28 00:38:44;;;;;;;;;14.75;13.25;;;;;19.67;34.92;102988.50;5071491;28;50986;-53
2022/01/28 00:41:11;;;;;;;;;14.00;12.75;;;;;19.65;34.83;103000.69;5059747;28;51390;-53
2022/01/28 00:43:36;;;;;;;;;14.75;9.25;;;;;19.63;35.08;102998.09;5076886;28;51003;-52
2022/01/28 00:46:02;;;;;;;;;19.50;14.50;;;;;19.63;34.58;103002.75;5069970;28;50998;-53
2022/01/28 00:48:27;;;;;;;;;12.25;11.00;;;;;19.60;35.14;102996.56;5074960;28;51648;-49
2022/01/28 00:50:53;;;;;;;;;14.50;12.75;;;;;19.60;34.94;102999.31;5072776;28;51052;-50
2022/01/28 00:53:19;;;;;;;;;12.25;10.25;;;;;19.58;34.91;103000.47;5074843;28;51059;-54
2022/01/28 00:55:44;;;;;;;;;12.25;11.25;;;;;19.58;34.95;103000.47;5067354;28;50920;-54
2022/01/28 00:58:09;;;;;;;;;14.25;11.50;;;;;19.56;35.15;103003.41;5073138;28;50918;-53
2022/01/28 01:00:35;;;;;;;;;12.50;12.00;;;;;19.56;34.96;103005.28;5060393;28;50970;-53
2022/01/28 01:03:00;;;;;;;;;14.75;14.25;;;;;19.54;35.23;103002.66;5067361;28;51281;-54
2022/01/28 01:05:26;;;;;;;;;12.50;12.00;;;;;19.53;35.10;103006.44;5069955;27;51302;-55
2022/01/28 01:07:51;;;;;;;;;13.00;10.50;;;;;19.53;35.29;103022.94;5059996;28;51707;-54
2022/01/28 01:10:17;;;;;;;;;17.25;13.25;;;;;19.52;35.05;103012.97;5068529;28;51106;-55
2022/01/28 01:12:45;;;;;;;;;15.25;11.50;;;;;19.51;35.12;103005.75;5067495;28;51056;-55
2022/01/28 01:15:16;;;;;;;;;15.00;11.75;;;;;19.51;34.97;103000.25;5075758;27;51232;-51
2022/01/28 01:17:52;;;;;;;;;12.75;12.75;;;;;19.50;35.50;103008.69;5077593;28;52649;-54
2022/01/28 01:23:08;;;;;;;;;14.75;14.50;;;;;19.49;35.06;103026.19;5070873;28;51256;-54
2022/01/28 01:25:42;;;;;;;;;13.75;12.50;;;;;19.48;35.22;103030.81;5072585;28;51126;-54
2022/01/28 01:28:10;;;;;;;;;14.25;13.25;;;;;19.47;35.28;103026.31;5071553;28;51960;-50
2022/01/28 01:30:39;;;;;;;;;9.00;8.25;;;;;19.47;35.16;103029.06;5076004;28;51076;-52
2022/01/28 01:33:05;;;;;;;;;13.25;12.00;;;;;19.46;35.14;103027.34;5069579;28;51170;-52
2022/01/28 01:35:32;;;;;;;;;13.50;13.00;;;;;19.46;35.18;103029.25;5070042;27;51230;-53
2022/01/28 01:37:58;;;;;;;;;12.75;9.75;;;;;19.44;35.23;103034.06;5067873;28;51113;-53
2022/01/28 01:40:29;;;;;;;;;11.00;11.00;;;;;19.44;35.36;103032.16;5092497;27;51015;-53
2022/01/28 01:43:07;;;;;;;;;12.00;11.00;;;;;19.42;35.35;103027.84;5068186;28;50972;-48
2022/01/28 01:53:27;;;;;;;;;13.00;11.75;;;;;19.41;35.41;103050.88;5064093;28;51020;-54
2022/01/28 01:55:55;;;;;;;;;12.50;11.75;;;;;19.40;35.33;103052.75;5070512;28;51019;-55
2022/01/28 01:58:25;;;;;;;;;13.75;11.50;;;;;19.40;35.28;103054.66;5066322;28;51915;-51
2022/01/28 02:00:51;;;;;;;;;13.75;9.75;;;;;19.40;35.70;103058.25;5090211;27;51308;-52
2022/01/28 02:03:16;;;;;;;;;10.00;10.00;;;;;19.39;35.51;103056.53;5067759;28;51223;-51
2022/01/28 02:05:41;;;;;;;;;14.00;12.00;;;;;19.38;35.48;103063.03;5064810;28;51197;-53
2022/01/28 02:08:07;;;;;;;;;16.25;12.75;;;;;19.38;35.37;103060.28;5063146;28;51745;-52
2022/01/28 02:10:35;;;;;;;;;15.00;11.00;;;;;19.38;35.41;103071.28;5074045;28;51051;-50
2022/01/28 02:13:01;;;;;;;;;11.00;10.25;;;;;19.37;35.34;103072.31;5075778;28;51139;-55
2022/01/28 02:15:27;;;;;;;;;14.50;13.00;;;;;19.37;35.53;103075.06;5070715;27;51221;-51
2022/01/28 02:17:52;;;;;;;;;13.50;10.50;;;;;19.36;35.50;103073.34;5070009;28;52780;-54
2022/01/28 02:20:26;;;;;;;;;10.50;10.50;;;;;19.36;35.46;103084.31;5069992;27;51039;-54
2022/01/28 02:22:55;;;;;;;;;12.50;10.25;;;;;19.35;35.61;103077.09;5077006;28;51094;-58
2022/01/28 02:25:26;;;;;;;;;13.75;11.75;;;;;19.35;35.58;103076.25;5068049;28;51017;-51
2022/01/28 02:27:52;;;;;;;;;14.50;14.50;;;;;19.35;35.51;103070.75;5053149;28;52719;-51
2022/01/28 02:30:18;;;;;;;;;17.75;13.25;;;;;19.33;35.48;103079.16;5061554;28;50937;-51
2022/01/28 02:32:45;;;;;;;;;15.25;9.00;;;;;19.33;35.42;103069.03;5059023;28;50924;-53
2022/01/28 02:35:10;;;;;;;;;12.00;11.50;;;;;19.31;35.36;103070.22;5063351;28;51208;-53
2022/01/28 02:37:37;;;;;;;;;15.75;10.75;;;;;19.32;35.29;103071.94;5077085;28;51870;-51
2022/01/28 02:40:04;;;;;;;;;12.00;12.00;;;;;19.31;35.63;103086.72;5071319;28;51293;-54
2022/01/28 02:42:45;;;;;;;;;13.75;13.75;;;;;19.31;35.60;103087.56;5066874;28;51112;-51
2022/01/28 02:45:13;;;;;;;;;12.00;10.00;;;;;19.31;35.53;103086.72;5066388;28;50972;-52
2022/01/28 02:47:38;;;;;;;;;14.25;12.50;;;;;19.30;35.70;103096.84;5068598;28;51816;-44
2022/01/28 02:50:07;;;;;;;;;11.50;11.25;;;;;19.30;35.50;103093.22;5066559;28;51024;-45
2022/01/28 02:52:43;;;;;;;;;10.25;10.25;;;;;19.29;35.58;103080.53;5065323;28;51322;-43
2022/01/28 02:55:11;;;;;;;;;10.50;9.50;;;;;19.28;35.73;103087.91;5067348;27;51153;-44
2022/01/28 02:57:41;;;;;;;;;12.75;9.25;;;;;19.27;35.64;103079.78;5059258;28;51791;-44
2022/01/28 03:00:07;;;;;;;;;13.00;9.50;;;;;19.27;35.62;103094.38;5074272;28;51214;-44
2022/01/28 03:02:32;;;;;;;;;13.75;13.00;;;;;19.26;35.62;103095.41;5061186;28;51083;-48
2022/01/28 03:05:30;;;;;;;;;13.75;11.50;;;;;19.26;35.71;103083.56;5062720;28;51010;-45
2022/01/28 03:07:43;;;;;;;;;13.50;10.50;;;;;19.26;35.76;103083.56;5067391;28;51012;-45
2022/01/28 03:12:47;;;;;;;;;11.75;9.25;;;;;19.25;35.56;103070.84;5063542;28;50969;-46
2022/01/28 03:15:18;;;;;;;;;11.00;9.75;;;;;19.24;35.42;103069.13;5058793;28;51137;-46
2022/01/28 03:17:55;;;;;;;;;12.00;11.50;;;;;19.24;35.72;103070.00;5073555;28;51376;-46
2022/01/28 03:22:47;;;;;;;;;14.00;12.00;;;;;19.23;35.42;103059.16;5069854;28;51220;-44
2022/01/28 03:25:14;;;;;;;;;12.25;9.25;;;;;19.22;35.52;103060.19;5062068;28;50942;-46
2022/01/28 03:30:05;;;;;;;;;12.00;11.50;;;;;19.21;35.49;103063.97;5064227;28;50969;-48
2022/01/28 03:32:31;;;;;;;;;13.00;9.75;;;;;19.21;35.61;103077.69;5059799;28;51157;-47
2022/01/28 03:34:57;;;;;;;;;12.25;11.00;;;;;19.19;35.62;103082.50;5060778;28;51086;-44
2022/01/28 03:37:23;;;;;;;;;13.25;10.50;;;;;19.19;35.53;103077.88;5073900;28;51070;-44
2022/01/28 03:39:48;;;;;;;;;8.50;8.25;;;;;19.20;35.71;103073.22;5065460;28;51235;-46
2022/01/28 03:42:13;;;;;;;;;11.50;11.00;;;;;19.19;35.82;103066.88;5060526;28;51180;-44
2022/01/28 03:44:39;;;;;;;;;3.50;3.50;;;;;19.19;35.72;103074.25;5072391;27;51032;-52
2022/01/28 03:47:05;;;;;;;;;10.00;8.75;;;;;19.19;35.55;103074.25;5057554;28;51848;-52
2022/01/28 03:49:30;;;;;;;;;12.50;11.25;;;;;19.17;35.72;103073.53;5090063;27;51126;-49
2022/01/28 03:51:55;;;;;;;;;9.50;8.00;;;;;19.18;35.64;103080.78;5066379;28;51381;-52
2022/01/28 03:54:21;;;;;;;;;13.25;11.00;;;;;19.16;35.68;103089.16;5063410;28;51138;-50
2022/01/28 03:56:46;;;;;;;;;10.00;7.75;;;;;19.16;35.76;103085.53;5069249;28;50907;-49
2022/01/28 03:59:11;;;;;;;;;11.00;8.75;;;;;19.16;35.56;103093.78;5077469;28;51416;-52
2022/01/28 04:01:39;;;;;;;;;13.50;10.50;;;;;19.15;35.55;103094.81;5075887;28;51042;-53
2022/01/28 04:04:52;;;;;;;;;10.00;8.25;;;;;19.15;35.73;103105.81;5070610;28;51335;-49
2022/01/28 04:12:20;;;;;;;;;10.00;8.25;;;;;19.13;35.62;103113.34;5072404;28;50968;-53
2022/01/28 04:15:03;;;;;;;;;8.50;8.50;;;;;19.13;35.80;103114.22;5058907;28;51154;-49
2022/01/28 04:17:28;;;;;;;;;11.25;10.00;;;;;19.13;35.66;103118.84;5062586;28;51973;-49
2022/01/28 04:19:54;;;;;;;;;15.50;11.75;;;;;19.12;35.62;103109.75;5068007;28;51146;-53
2022/01/28 04:22:20;;;;;;;;;10.75;9.75;;;;;19.12;35.57;103108.88;5059526;28;51663;-52
2022/01/28 04:24:46;;;;;;;;;11.75;11.25;;;;;19.10;35.71;103111.78;5072954;28;51263;-52
2022/01/28 04:27:11;;;;;;;;;17.25;13.25;;;;;19.10;35.63;103109.03;5068182;28;51759;-50
2022/01/28 04:29:37;;;;;;;;;11.75;9.50;;;;;19.10;35.57;103110.94;5088947;27;51062;-53
2022/01/28 04:32:03;;;;;;;;;11.75;11.25;;;;;19.11;35.82;103112.66;5065591;28;50864;-51
2022/01/28 04:34:28;;;;;;;;;13.75;12.00;;;;;19.08;35.74;103108.34;5066219;27;51008;-51
2022/01/28 04:37:18;;;;;;;;;12.50;12.50;;;;;19.09;35.76;103114.69;5064692;28;51755;-52
2022/01/28 04:45:14;;;;;;;;;13.00;12.50;;;;;19.08;35.69;103108.34;5084925;27;50830;-53
2022/01/28 04:52:53;;;;;;;;;14.50;14.25;;;;;19.07;36.02;103122.22;5070983;28;52401;-50
2022/01/28 04:58:33;;;;;;;;;13.00;11.75;;;;;19.04;35.55;103118.75;5054613;28;51591;-50
2022/01/28 05:06:28;;;;;;;;;15.75;12.25;;;;;19.03;35.86;103125.28;5064162;27;51143;-53
2022/01/28 05:27:44;;;;;;;;;12.50;12.00;;;;;19.00;35.77;103152.22;5079763;28;51034;-53
2022/01/28 05:30:10;;;;;;;;;13.25;12.25;;;;;18.99;36.05;103153.22;5070978;28;52598;-52
2022/01/28 05:32:35;;;;;;;;;17.25;14.25;;;;;18.99;35.86;103155.97;5074494;28;51138;-45
2022/01/28 05:35:01;;;;;;;;;13.25;12.75;;;;;18.98;36.11;103163.38;5092063;27;51392;-44
2022/01/28 05:37:26;;;;;;;;;14.50;12.50;;;;;18.98;35.87;103171.59;5059680;28;51216;-46
2022/01/28 05:39:51;;;;;;;;;14.25;13.75;;;;;18.98;36.12;103163.38;5092267;27;53716;-45
2022/01/28 05:42:17;;;;;;;;;14.50;13.50;;;;;18.97;36.03;103158.88;5068417;28;50928;-46
2022/01/28 05:44:42;;;;;;;;;16.00;13.50;;;;;18.97;36.18;103164.38;5077258;27;51128;-48
2022/01/28 05:47:13;;;;;;;;;16.25;14.25;;;;;18.97;35.89;103177.25;5071370;28;51293;-45
2022/01/28 05:49:38;;;;;;;;;13.25;12.25;;;;;18.96;35.87;103178.25;5070450;28;50965;-48
2022/01/28 05:52:04;;;;;;;;;12.50;11.50;;;;;18.96;35.80;103181.84;5076607;28;51106;-45
2022/01/28 05:54:29;;;;;;;;;13.50;13.25;;;;;18.96;36.04;103179.09;5067311;27;51052;-44
2022/01/28 05:56:55;;;;;;;;;12.00;10.00;;;;;18.95;35.95;103180.13;5059580;28;51033;-47
2022/01/28 05:59:20;;;;;;;;;22.25;19.25;;;;;18.97;35.89;103210.22;5076561;28;51851;-46
2022/01/28 06:01:46;;;;;;;;;27.75;22.75;;;;;18.95;36.48;103209.47;5065806;28;50893;-45
2022/01/28 06:04:11;;;;;;;;;22.00;20.25;;;;;18.89;36.21;103200.00;5093559;27;51221;-54
2022/01/28 06:06:36;;;;;;;;;30.50;21.25;;;;;18.85;36.78;103209.53;5078533;28;51264;-45
2022/01/28 06:09:02;;;;;;;;;24.50;18.50;;;;;18.87;36.61;103212.16;5079086;28;52175;-46
2022/01/28 06:11:27;;;;;;;;;21.25;17.50;;;;;18.94;36.81;103205.00;5060071;28;51090;-55
2022/01/28 06:13:53;;;;;;;;;20.50;19.00;;;;;19.02;36.58;103207.84;5092030;27;51577;-45
2022/01/28 06:16:19;;;;;;;;;17.00;15.50;;;;;19.12;36.63;103218.78;5071028;28;51642;-46
2022/01/28 06:18:44;;;;;;;;;13.25;11.75;;;;;19.21;36.43;103207.72;5066325;28;51955;-46
2022/01/28 06:21:10;;;;;;;;;16.00;15.00;;;;;19.31;36.36;103210.38;5073685;28;51166;-46
2022/01/28 06:23:36;;;;;;;;;22.00;17.75;;;;;19.40;36.31;103212.19;5078616;28;50991;-45
2022/01/28 06:26:04;;;;;;;;;15.00;13.75;;;;;19.48;36.15;103209.47;5065076;28;51363;-45
2022/01/28 06:28:30;;;;;;;;;16.00;14.25;;;;;19.57;35.72;103214.06;5062496;28;52314;-45
2022/01/28 06:30:56;;;;;;;;;12.00;11.50;;;;;19.65;35.98;103210.53;5066901;28;51307;-46
2022/01/28 06:33:22;;;;;;;;;15.50;13.25;;;;;19.72;35.79;103211.63;5062327;28;51249;-46
2022/01/28 06:35:48;;;;;;;;;16.50;14.75;;;;;19.80;35.90;103214.44;5077381;27;51428;-46
2022/01/28 06:38:15;;;;;;;;;14.75;13.50;;;;;19.89;35.59;103216.19;5069900;28;51069;-51
2022/01/28 06:40:40;;;;;;;;;19.25;16.00;;;;;19.97;35.72;103212.63;5059134;28;51170;-54
2022/01/28 06:43:10;;;;;;;;;13.75;10.75;;;;;20.04;35.63;103208.22;5070766;28;51315;-45
2022/01/28 06:45:36;;;;;;;;;15.75;14.75;;;;;20.12;35.63;103210.16;5066050;27;51173;-45
2022/01/28 06:48:02;;;;;;;;;16.00;12.25;;;;;20.19;35.51;103213.97;5067105;28;51070;-50
2022/01/28 06:50:28;;;;;;;;;13.25;11.75;;;;;20.25;35.66;103217.97;5064916;28;51585;-46
2022/01/28 06:52:53;;;;;;;;;13.50;12.00;;;;;20.31;35.57;103231.91;5073113;28;51185;-47
2022/01/28 06:55:18;;;;;;;;;15.25;15.25;;;;;20.36;35.20;103221.28;5076817;27;51035;-50
2022/01/28 06:57:44;;;;;;;;;12.00;11.25;;;;;20.43;35.22;103224.31;5078016;28;51838;-46
2022/01/28 07:00:11;;;;;;;;;12.75;12.00;;;;;20.49;35.28;103220.88;5075313;28;51218;-56
2022/01/28 07:02:37;;;;;;;;;15.00;14.75;;;;;20.55;34.94;103224.88;5063084;28;50926;-46
2022/01/28 07:05:04;;;;;;;;;11.50;10.75;;;;;20.60;35.37;103242.59;5075290;28;51003;-55
2022/01/28 07:07:30;;;;;;;;;15.25;13.75;;;;;20.65;35.43;103237.47;5074795;28;51894;-53
2022/01/28 07:09:56;;;;;;;;;16.50;14.00;;;;;20.70;35.56;103242.47;5065339;28;51348;-49
2022/01/28 07:12:22;;;;;;;;;15.00;15.00;;;;;20.75;35.62;103229.94;5057709;28;51045;-48
2022/01/28 07:14:47;;;;;;;;;14.50;12.50;;;;;20.83;35.69;103236.47;5058820;28;51016;-50
2022/01/28 07:17:13;;;;;;;;;20.50;15.25;;;;;20.87;35.70;103240.66;5070399;28;51550;-48
2022/01/28 07:19:38;;;;;;;;;14.00;14.00;;;;;20.93;35.23;103248.22;5062363;28;51014;-50
2022/01/28 07:22:04;;;;;;;;;14.25;13.00;;;;;21.00;35.12;103246.53;5068466;28;51060;-44
2022/01/28 07:24:30;;;;;;;;;18.75;16.50;;;;;21.06;35.55;103251.38;5072259;27;51170;-42
2022/01/28 07:26:55;;;;;;;;;18.75;18.50;;;;;21.14;35.66;103253.28;5071254;28;51677;-46
2022/01/28 07:29:22;;;;;;;;;18.00;16.50;;;;;21.18;35.41;103254.69;5064953;28;51119;-47
2022/01/28 07:31:48;;;;;;;;;24.75;19.75;;;;;21.19;35.29;103254.50;5076395;28;51107;-47
2022/01/28 07:34:14;;;;;;;;;17.50;16.00;;;;;21.18;35.25;103261.06;5076672;27;51072;-44
2022/01/28 07:36:40;;;;;;;;;8.75;4.50;;;;;21.17;35.27;103263.97;5063091;28;50988;-48
2022/01/28 07:39:07;;;;;;;;;20.25;18.50;;;;;21.14;34.89;103261.53;5065699;28;51363;-46
2022/01/28 07:41:37;;;;;;;;;19.00;18.00;;;;;21.11;34.95;103271.00;5065955;28;51007;-49
2022/01/28 07:44:02;;;;;;;;;24.75;21.25;;;;;21.08;35.19;103265.00;5058267;28;51012;-50
2022/01/28 07:46:28;;;;;;;;;21.00;19.00;;;;;21.02;35.04;103267.38;5055407;28;51872;-48
2022/01/28 07:48:53;;;;;;;;;22.25;16.75;;;;;20.96;34.95;103273.56;5057078;28;50862;-49
2022/01/28 07:51:19;;;;;;;;;24.00;22.75;;;;;20.91;34.86;103275.09;5057110;28;51249;-47
2022/01/28 07:53:44;;;;;;;;;18.00;16.25;;;;;20.86;34.91;103283.00;5057490;28;50847;-46
2022/01/28 07:56:11;;;;;;;;;19.75;18.00;;;;;20.82;34.81;103292.59;5056818;28;51853;-48
2022/01/28 07:58:37;;;;;;;;;22.75;17.50;;;;;20.75;35.12;103284.16;5057108;28;51123;-45
2022/01/28 08:01:03;;;;;;;;;20.25;19.00;;;;;20.69;35.36;103287.56;5056985;28;51048;-46
2022/01/28 08:03:28;;;;;;;;;23.75;18.00;;;;;20.65;34.89;103297.19;5057395;28;51065;-51
2022/01/28 08:05:54;;;;;;;;;26.75;23.50;;;;;20.59;35.21;103293.19;5055632;28;52644;-46
2022/01/28 08:08:21;;;;;;;;;17.25;16.75;;;;;20.55;35.08;103299.22;5056914;28;50870;-46
2022/01/28 08:10:46;;;;;;;;;30.25;21.25;;;;;20.50;34.89;103301.56;5056393;28;51060;-49
2022/01/28 08:13:12;;;;;;;;;26.75;17.25;;;;;20.45;35.25;103305.69;5090140;27;50860;-49
2022/01/28 08:15:39;;;;;;;;;20.50;16.75;;;;;20.40;35.04;103299.75;5060147;28;51915;-47
2022/01/28 08:18:05;;;;;;;;;21.50;19.50;;;;;20.35;34.91;103302.16;5060279;28;51480;-46
2022/01/28 08:20:31;;;;;;;;;21.50;18.25;;;;;20.32;35.28;103298.84;5060332;28;50831;-47
2022/01/28 08:22:57;;;;;;;;;21.00;19.00;;;;;20.29;35.23;103304.69;5069446;28;50909;-49
2022/01/28 08:25:24;;;;;;;;;26.50;19.50;;;;;20.24;34.89;103305.19;5078066;27;53138;-45
2022/01/28 08:27:52;;;;;;;;;20.50;18.00;;;;;20.22;35.15;103306.34;5076853;28;50988;-47
2022/01/28 08:30:22;;;;;;;;;23.00;20.25;;;;;20.17;35.26;103304.94;5074538;27;50990;-48
2022/01/28 08:32:49;;;;;;;;;19.25;18.50;;;;;20.15;35.41;103308.91;5061760;28;51369;-46
2022/01/28 08:35:15;;;;;;;;;20.00;18.75;;;;;20.12;35.13;103315.59;5061529;27;51157;-44
2022/01/28 08:37:40;;;;;;;;;21.25;19.00;;;;;20.09;35.18;103323.28;5075963;28;51219;-47
2022/01/28 08:40:08;;;;;;;;;19.25;15.75;;;;;20.06;35.05;103327.22;5078832;28;51118;-48
2022/01/28 08:42:34;;;;;;;;;15.75;14.50;;;;;20.03;35.40;103329.44;5078431;27;51115;-44
2022/01/28 08:44:59;;;;;;;;;18.00;16.25;;;;;20.01;35.31;103336.97;5061565;28;51562;-45
2022/01/28 08:47:25;;;;;;;;;18.25;15.75;;;;;19.97;35.42;103343.84;5069109;28;51016;-45
2022/01/28 08:49:50;;;;;;;;;18.50;16.50;;;;;19.94;35.04;103345.03;5063418;28;51004;-48
2022/01/28 08:52:15;;;;;;;;;18.00;16.00;;;;;19.93;35.27;103351.53;5067015;28;51044;-44
2022/01/28 08:54:41;;;;;;;;;19.75;17.75;;;;;19.91;35.36;103347.22;5067604;27;51260;-45
2022/01/28 08:57:07;;;;;;;;;19.50;17.00;;;;;19.87;35.31;103353.03;5078342;28;50915;-49
2022/01/28 08:59:32;;;;;;;;;14.50;12.50;;;;;19.85;35.32;103362.47;5078345;28;50942;-47
2022/01/28 09:01:58;;;;;;;;;18.50;17.75;;;;;19.83;35.18;103362.63;5071060;28;51092;-45
2022/01/28 09:04:23;;;;;;;;;17.25;13.25;;;;;19.82;35.11;103365.53;5069856;28;51119;-46
2022/01/28 09:06:48;;;;;;;;;14.75;14.00;;;;;19.80;35.01;103373.97;5066620;28;51116;-53
2022/01/28 09:09:14;;;;;;;;;20.25;15.50;;;;;19.77;35.45;103379.75;5076750;28;51136;-52
2022/01/28 09:12:08;;;;;;;;;14.50;14.50;;;;;19.75;35.16;103372.69;5060539;28;50978;-51
2022/01/28 09:14:34;;;;;;;;;16.50;14.50;;;;;19.73;35.08;103375.59;5057350;28;52953;-56
2022/01/28 09:16:59;;;;;;;;;14.25;13.50;;;;;19.72;35.53;103375.75;5076863;28;50982;-56
2022/01/28 09:19:25;;;;;;;;;12.00;11.75;;;;;19.71;35.62;103374.03;5061488;28;50996;-52
2022/01/28 09:21:51;;;;;;;;;15.50;13.50;;;;;19.69;35.02;103378.78;5061494;28;51306;-53
2022/01/28 09:24:16;;;;;;;;;14.75;13.75;;;;;19.67;35.33;103376.22;5077679;27;50978;-54
2022/01/28 09:26:42;;;;;;;;;18.50;16.25;;;;;19.65;34.89;103374.63;5071031;28;51139;-54
2022/01/28 09:29:07;;;;;;;;;18.25;17.00;;;;;19.62;35.24;103372.22;5072149;28;51044;-53
2022/01/28 09:31:33;;;;;;;;;13.50;10.75;;;;;19.62;35.29;103372.22;5066965;28;50830;-53
2022/01/28 09:33:58;;;;;;;;;15.00;13.00;;;;;19.60;35.15;103373.22;5068883;27;51775;-56
2022/01/28 09:36:24;;;;;;;;;13.00;12.00;;;;;19.58;35.42;103383.50;5076926;28;51198;-51
2022/01/28 09:38:50;;;;;;;;;18.25;14.75;;;;;19.58;35.47;103383.50;5060230;28;50909;-50
2022/01/28 09:41:16;;;;;;;;;12.75;12.00;;;;;19.56;35.14;103380.03;5073164;28;50849;-52
2022/01/28 09:43:46;;;;;;;;;15.25;12.25;;;;;19.55;35.34;103378.31;5059234;28;52005;-52
2022/01/28 09:46:12;;;;;;;;;13.75;12.75;;;;;19.54;35.50;103387.56;5076433;28;51502;-53
2022/01/28 09:48:39;;;;;;;;;18.00;12.50;;;;;19.51;35.30;103384.25;5077530;28;51143;-53
2022/01/28 09:51:05;;;;;;;;;15.25;13.00;;;;;19.52;35.37;103388.75;5076431;28;50956;-50
2022/01/28 09:53:31;;;;;;;;;11.75;10.25;;;;;19.50;35.34;103379.78;5076259;28;51116;-51
2022/01/28 09:55:57;;;;;;;;;16.25;11.75;;;;;19.49;35.34;103383.56;5076409;27;51323;-52
2022/01/28 09:58:23;;;;;;;;;14.00;10.25;;;;;19.48;35.44;103379.91;5065560;28;51526;-54
2022/01/28 10:00:49;;;;;;;;;12.75;10.00;;;;;19.47;35.24;103374.56;5058819;28;51184;-51
2022/01/28 10:03:16;;;;;;;;;10.50;9.25;;;;;19.46;35.48;103381.09;5065176;28;51806;-55
2022/01/28 10:05:44;;;;;;;;;13.25;11.00;;;;;19.45;35.22;103385.72;5060020;28;51166;-53
2022/01/28 10:08:22;;;;;;;;;11.75;11.00;;;;;19.45;35.30;103387.63;5077126;28;51019;-52
2022/01/28 10:11:02;;;;;;;;;13.50;11.00;;;;;19.42;35.21;103383.31;5060802;28;51436;-54
2022/01/28 10:13:52;;;;;;;;;14.75;12.25;;;;;19.42;35.42;103394.28;5067039;28;52644;-52
2022/01/28 10:16:22;;;;;;;;;9.25;7.00;;;;;19.40;35.32;103385.34;5071406;28;51209;-50
2022/01/28 10:18:57;;;;;;;;;13.25;10.25;;;;;19.40;35.48;103387.22;5057277;28;50973;-50
2022/01/28 10:21:32;;;;;;;;;12.25;10.25;;;;;19.39;35.28;103397.38;5076617;28;51377;-54
2022/01/28 10:24:12;;;;;;;;;12.25;9.00;;;;;19.39;35.36;103396.50;5069128;28;50917;-57
2022/01/28 10:26:46;;;;;;;;;12.75;11.50;;;;;19.38;35.46;103397.50;5076990;28;51673;-52
2022/01/28 10:29:30;;;;;;;;;11.00;9.75;;;;;19.36;35.35;103397.66;5077162;27;51080;-56
2022/01/28 10:32:01;;;;;;;;;8.25;8.25;;;;;19.35;35.51;103404.16;5077212;28;51004;-56
2022/01/28 10:34:36;;;;;;;;;9.75;9.25;;;;;19.35;35.78;103395.91;5068307;28;51054;-55
2022/01/28 10:37:28;;;;;;;;;7.75;7.75;;;;;19.33;35.35;103404.31;5062683;28;51197;-52
2022/01/28 10:39:57;;;;;;;;;9.75;7.50;;;;;19.32;35.38;103402.59;5057001;27;50989;-56
2022/01/28 10:42:25;;;;;;;;;8.75;7.50;;;;;19.31;35.35;103400.88;5065766;28;50897;-53
2022/01/28 10:44:55;;;;;;;;;8.50;8.50;;;;;19.32;35.46;103407.22;5056861;28;52460;-51
2022/01/28 10:47:36;;;;;;;;;11.00;10.50;;;;;19.31;35.39;103416.50;5059384;28;51138;-53
2022/01/28 10:50:22;;;;;;;;;10.00;8.75;;;;;19.30;35.45;103414.78;5076577;28;51208;-52
2022/01/28 10:53:00;;;;;;;;;12.00;9.25;;;;;19.30;35.32;103421.13;5074712;28;51322;-45
2022/01/28 10:55:26;;;;;;;;;12.00;10.00;;;;;19.30;35.39;103428.50;5064227;27;51035;-47
2022/01/28 10:57:56;;;;;;;;;10.50;9.00;;;;;19.29;35.61;103429.53;5063440;28;51454;-45
2022/01/28 11:00:25;;;;;;;;;12.00;8.00;;;;;19.28;35.30;103422.31;5071256;28;51529;-54
2022/01/28 11:02:53;;;;;;;;;10.75;10.75;;;;;19.27;35.39;103417.81;5075030;28;50909;-46
2022/01/28 11:05:19;;;;;;;;;12.75;9.50;;;;;19.27;35.34;103420.53;5060403;28;51845;-46
2022/01/28 11:07:45;;;;;;;;;8.25;7.50;;;;;19.26;35.59;103424.31;5062752;28;51442;-44
2022/01/28 11:10:10;;;;;;;;;12.00;9.00;;;;;19.25;35.60;103423.44;5075904;28;51248;-49
2022/01/28 11:12:36;;;;;;;;;12.00;11.25;;;;;19.25;35.46;103425.34;5075740;28;51001;-45
2022/01/28 11:15:01;;;;;;;;;8.00;8.00;;;;;19.24;35.30;103429.09;5070593;27;51146;-46
2022/01/28 11:17:26;;;;;;;;;12.25;9.00;;;;;19.24;35.50;103423.59;5062518;28;51098;-50
2022/01/28 11:19:55;;;;;;;;;13.25;11.75;;;;;19.23;35.14;103421.88;5061399;28;51123;-44
2022/01/28 11:22:33;;;;;;;;;9.00;7.25;;;;;19.23;35.45;103419.13;5069645;28;51093;-45
2022/01/28 11:25:27;;;;;;;;;11.00;10.00;;;;;19.22;35.51;103412.78;5072895;28;51606;-50
2022/01/28 11:27:54;;;;;;;;;11.75;9.25;;;;;19.21;35.53;103401.94;5075934;27;50847;-45
2022/01/28 11:30:25;;;;;;;;;7.00;7.00;;;;;19.21;35.41;103407.44;5063043;28;51364;-51
2022/01/28 11:32:53;;;;;;;;;9.50;9.50;;;;;19.22;35.36;103406.41;5060135;28;50975;-52
2022/01/28 11:35:21;;;;;;;;;9.50;9.50;;;;;19.21;35.53;103402.81;5061151;28;51613;-43
2022/01/28 11:37:46;;;;;;;;;10.00;7.25;;;;;19.21;35.50;103407.44;5055890;28;51433;-46
2022/01/28 11:40:14;;;;;;;;;11.00;9.00;;;;;19.20;35.51;103400.22;5069237;28;51352;-50
2022/01/28 11:42:41;;;;;;;;;13.50;9.25;;;;;19.19;35.50;103399.34;5069081;28;51024;-44
2022/01/28 11:45:09;;;;;;;;;7.25;6.75;;;;;19.19;35.38;103393.00;5059748;28;51933;-48
2022/01/28 11:47:35;;;;;;;;;12.50;11.75;;;;;19.18;35.74;103378.38;5072480;28;50942;-47
2022/01/28 11:50:18;;;;;;;;;10.25;10.00;;;;;19.19;35.59;103387.50;5066405;28;51087;-46
2022/01/28 11:52:44;;;;;;;;;8.00;7.00;;;;;19.18;35.52;103383.03;5060749;28;50902;-45
2022/01/28 11:55:23;;;;;;;;;8.00;8.00;;;;;19.24;35.63;103382.38;5074252;28;51996;-45
2022/01/28 11:57:54;;;;;;;;;10.50;7.75;;;;;19.33;35.79;103375.97;5068571;28;51081;-49
2022/01/28 12:00:21;;;;;;;;;7.00;6.50;;;;;19.43;35.78;103371.28;5073933;28;51011;-45
2022/01/28 12:02:52;;;;;;;;;11.50;8.75;;;;;19.54;35.54;103373.81;5056252;28;51508;-45
2022/01/28 12:05:44;;;;;;;;;7.00;6.00;;;;;19.68;35.53;103363.31;5059417;28;52466;-46
2022/01/28 12:08:11;;;;;;;;;8.00;6.00;;;;;19.76;35.64;103345.03;5057694;27;51392;-46
2022/01/28 12:10:42;;;;;;;;;5.75;5.75;;;;;19.86;35.63;103348.56;5056068;28;51279;-45
2022/01/28 12:13:12;;;;;;;;;6.00;6.00;;;;;19.95;35.61;103345.88;5056906;28;51179;-46
2022/01/28 12:16:01;;;;;;;;;7.50;6.50;;;;;20.04;35.52;103340.28;5056855;28;50936;-45
2022/01/28 12:18:56;;;;;;;;;11.25;9.00;;;;;20.13;35.14;103353.09;5087689;27;51584;-45
2022/01/28 12:21:31;;;;;;;;;8.25;5.00;;;;;20.22;35.41;103354.03;5086233;27;51817;-46
2022/01/28 12:24:18;;;;;;;;;9.50;6.00;;;;;20.32;34.97;103337.38;5066644;28;51184;-46
2022/01/28 12:27:05;;;;;;;;;6.75;6.75;;;;;20.40;34.88;103334.69;5051574;28;51034;-45
2022/01/28 12:29:33;;;;;;;;;11.00;9.00;;;;;20.45;34.90;103322.22;5066352;27;50955;-46
2022/01/28 12:32:00;;;;;;;;;7.75;6.00;;;;;20.52;35.32;103316.91;5073666;28;51122;-47
2022/01/28 12:34:26;;;;;;;;;8.50;7.00;;;;;20.60;35.01;103313.34;5066424;28;51031;-45
2022/01/28 12:36:52;;;;;;;;;9.50;8.25;;;;;20.66;35.04;103305.28;5074660;28;50955;-49
2022/01/28 12:39:31;;;;;;;;;9.25;8.25;;;;;20.71;34.73;103302.88;5070129;28;51039;-46
2022/01/28 12:42:08;;;;;;;;;6.25;6.25;;;;;20.78;34.69;103308.63;5088932;27;51185;-53
2022/01/28 12:44:35;;;;;;;;;6.75;6.25;;;;;20.86;34.69;103321.56;5067000;28;51408;-53
2022/01/28 12:47:12;;;;;;;;;8.00;7.50;;;;;20.88;34.54;103319.50;5065032;28;52817;-52